Time;durP1;ratioP1;P1;durP2;ratioP2;P2;SDS_P1;SDS_P2;PMS_P1;PMS_P2;Temp;Humidity;BMP_temperature;BMP_pressure;BME280_temperature;BME280_humidity;BME280_pressure;Samples;Min_cycle;Max_cycle;Signal;HPM_P1;HPM_P2
2022/09/16 00:01:36;;;;;;;1.02;0.73;;;19.00;65.00;;;;;;5050329;28;20134;-72
2022/09/16 00:04:03;;;;;;;1.23;0.70;;;19.00;65.00;;;;;;5050286;28;20061;-72
2022/09/16 00:06:30;;;;;;;2.20;0.80;;;18.50;66.80;;;;;;5050179;28;20123;-72
2022/09/16 00:08:57;;;;;;;0.85;0.60;;;19.00;64.90;;;;;;5051679;28;20051;-71
2022/09/16 00:11:24;;;;;;;0.88;0.68;;;19.00;64.90;;;;;;5050304;28;20053;-73
2022/09/16 00:13:52;;;;;;;1.38;0.70;;;19.00;64.90;;;;;;5050483;28;20505;-71
2022/09/16 00:16:20;;;;;;;0.93;0.60;;;19.00;65.00;;;;;;5051214;28;20132;-72
2022/09/16 00:18:47;;;;;;;0.63;0.60;;;19.00;64.90;;;;;;5051366;28;20409;-71
2022/09/16 00:21:14;;;;;;;1.13;0.68;;;19.00;65.00;;;;;;5050967;28;20051;-72
2022/09/16 00:23:41;;;;;;;0.75;0.60;;;19.00;64.90;;;;;;5050516;28;20049;-72
2022/09/16 00:26:07;;;;;;;1.58;0.63;;;18.90;64.90;;;;;;5050292;28;20136;-71
2022/09/16 00:28:34;;;;;;;1.25;0.70;;;19.00;65.00;;;;;;5051247;28;20049;-72
2022/09/16 00:31:02;;;;;;;1.13;0.60;;;19.00;64.90;;;;;;5050922;28;20379;-71
2022/09/16 00:33:29;;;;;;;1.77;0.75;;;18.90;64.90;;;;;;5050280;28;20498;-71
2022/09/16 00:36:05;;;;;;;1.40;0.70;;;18.70;67.10;;;;;;5050954;28;20049;-72
2022/09/16 00:38:31;;;;;;;0.75;0.60;;;18.90;64.80;;;;;;5053915;28;20049;-71
2022/09/16 00:40:58;;;;;;;0.90;0.60;;;19.00;64.90;;;;;;5054876;28;20049;-71
2022/09/16 00:43:25;;;;;;;1.17;0.65;;;18.90;64.90;;;;;;5055108;28;20053;-71
2022/09/16 00:45:55;;;;;;;1.13;0.70;;;18.90;67.20;;;;;;5054882;28;20136;-72
2022/09/16 00:48:25;;;;;;;1.85;0.77;;;18.90;64.90;;;;;;5055019;28;20063;-71
2022/09/16 00:50:53;;;;;;;0.70;0.60;;;19.00;65.00;;;;;;5054186;28;20052;-71
2022/09/16 00:53:22;;;;;;;1.75;0.90;;;18.90;64.90;;;;;;5053637;28;20530;-71
2022/09/16 00:55:49;;;;;;;0.70;0.70;;;18.90;64.90;;;;;;5053754;28;20174;-72
2022/09/16 00:58:19;;;;;;;0.75;0.73;;;18.90;64.90;;;;;;5053615;28;20053;-71
2022/09/16 01:00:45;;;;;;;1.20;0.70;;;18.90;64.90;;;;;;5054289;28;20136;-71
2022/09/16 01:03:12;;;;;;;1.25;0.70;;;18.90;64.90;;;;;;5054343;28;20052;-71
2022/09/16 01:05:40;;;;;;;0.90;0.50;;;18.90;64.90;;;;;;5054526;28;20490;-71
2022/09/16 01:08:07;;;;;;;0.75;0.60;;;18.90;64.90;;;;;;5053269;28;20052;-71
2022/09/16 01:10:33;;;;;;;0.98;0.50;;;18.90;64.90;;;;;;5054115;28;20132;-72
2022/09/16 01:13:01;;;;;;;1.10;0.60;;;18.90;64.90;;;;;;5054646;28;20063;-72
2022/09/16 01:15:31;;;;;;;1.40;0.60;;;18.90;64.90;;;;;;5054362;28;20130;-71
2022/09/16 01:18:09;;;;;;;1.75;0.68;;;18.90;64.90;;;;;;5052883;28;20413;-71
2022/09/16 01:20:58;;;;;;;0.65;0.65;;;18.90;64.90;;;;;;5052704;28;20481;-71
2022/09/16 01:23:58;;;;;;;1.15;0.57;;;18.90;64.90;;;;;;5053554;28;20123;-71
2022/09/16 01:26:48;;;;;;;0.52;0.52;;;18.90;64.90;;;;;;5052619;28;20051;-71
2022/09/16 01:29:25;;;;;;;0.73;0.60;;;18.90;64.90;;;;;;5051263;28;20052;-72
2022/09/16 01:31:54;;;;;;;2.25;0.98;;;18.90;64.90;;;;;;5051665;28;20512;-71
2022/09/16 01:34:26;;;;;;;0.47;0.47;;;18.90;65.00;;;;;;5053179;28;20057;-72
2022/09/16 01:36:56;;;;;;;0.70;0.70;;;18.90;64.90;;;;;;5050576;28;20055;-72
2022/09/16 01:39:28;;;;;;;1.05;0.68;;;18.90;64.90;;;;;;5053455;28;20405;-71
2022/09/16 01:42:01;;;;;;;0.70;0.70;;;18.80;64.80;;;;;;5052275;28;20059;-72
2022/09/16 01:44:32;;;;;;;0.95;0.70;;;18.80;64.90;;;;;;5050889;28;20045;-72
2022/09/16 01:47:03;;;;;;;1.35;0.75;;;18.80;64.90;;;;;;5052273;28;20049;-71
2022/09/16 01:49:36;;;;;;;0.80;0.55;;;18.90;64.90;;;;;;5050962;28;20078;-72
2022/09/16 01:52:06;;;;;;;2.72;0.60;;;18.80;64.80;;;;;;5052248;28;20049;-72
2022/09/16 01:54:34;;;;;;;1.65;0.60;;;18.80;64.80;;;;;;5053465;28;20437;-71
2022/09/16 01:57:01;;;;;;;0.88;0.63;;;18.80;64.80;;;;;;5051759;28;20678;-71
2022/09/16 01:59:31;;;;;;;1.65;0.80;;;18.80;64.80;;;;;;5052228;28;20048;-71
2022/09/16 02:02:02;;;;;;;0.75;0.52;;;18.80;64.80;;;;;;5053264;28;20417;-71
2022/09/16 02:04:29;;;;;;;1.20;0.70;;;18.80;64.80;;;;;;5052546;28;20055;-71
2022/09/16 02:06:56;;;;;;;0.63;0.60;;;18.80;64.80;;;;;;5049642;28;20045;-71
2022/09/16 02:09:26;;;;;;;1.25;1.00;;;18.80;64.80;;;;;;5053364;28;20055;-71
2022/09/16 02:11:53;;;;;;;0.98;0.52;;;18.80;64.70;;;;;;5053374;28;20490;-71
2022/09/16 02:14:22;;;;;;;0.70;0.57;;;18.80;64.70;;;;;;5052624;28;20501;-71
2022/09/16 02:16:50;;;;;;;1.58;0.70;;;18.80;64.80;;;;;;5050853;28;20520;-71
2022/09/16 02:19:20;;;;;;;2.05;0.90;;;18.80;65.30;;;;;;5051602;28;20045;-71
2022/09/16 02:21:47;;;;;;;1.02;0.90;;;18.80;64.70;;;;;;5051636;28;20498;-71
2022/09/16 02:24:16;;;;;;;1.30;0.60;;;18.80;64.70;;;;;;5051801;28;20053;-71
2022/09/16 02:26:44;;;;;;;1.58;1.27;;;18.80;64.70;;;;;;5051772;28;20401;-71
2022/09/16 02:29:13;;;;;;;2.05;0.70;;;18.80;64.70;;;;;;5052016;28;20063;-71
2022/09/16 02:31:40;;;;;;;0.65;0.60;;;19.10;66.60;;;;;;5052308;28;20502;-71
2022/09/16 02:34:09;;;;;;;1.08;0.65;;;18.80;64.70;;;;;;5051646;28;20140;-71
2022/09/16 02:36:37;;;;;;;1.60;0.70;;;18.80;64.60;;;;;;5052544;28;20045;-71
2022/09/16 02:39:07;;;;;;;1.17;0.68;;;20.70;65.60;;;;;;5051755;28;20052;-71
2022/09/16 02:41:34;;;;;;;1.15;0.73;;;18.70;64.60;;;;;;5052546;28;20075;-71
2022/09/16 02:44:00;;;;;;;1.27;0.60;;;18.80;64.60;;;;;;5051469;28;20067;-71
2022/09/16 02:46:31;;;;;;;1.10;0.55;;;18.70;64.60;;;;;;5052215;28;20059;-71
2022/09/16 02:48:59;;;;;;;0.63;0.50;;;18.70;64.60;;;;;;5051277;28;20409;-71
2022/09/16 02:51:33;;;;;;;1.38;0.60;;;18.70;64.60;;;;;;5052452;28;20131;-71
2022/09/16 02:54:02;;;;;;;0.70;0.50;;;18.70;64.60;;;;;;5051544;28;20052;-71
2022/09/16 02:56:30;;;;;;;0.70;0.50;;;18.70;64.60;;;;;;5051031;28;20057;-71
2022/09/16 02:58:57;;;;;;;1.45;0.52;;;18.70;64.60;;;;;;5052357;28;20055;-71
2022/09/16 03:01:24;;;;;;;1.20;0.60;;;18.70;64.60;;;;;;5050525;28;20057;-71
2022/09/16 03:03:50;;;;;;;0.70;0.57;;;18.70;64.60;;;;;;5051329;28;20072;-71
2022/09/16 03:06:19;;;;;;;0.63;0.50;;;18.70;64.60;;;;;;5051978;28;20075;-71
2022/09/16 03:08:46;;;;;;;1.08;0.50;;;18.70;64.50;;;;;;5052393;28;20508;-71
2022/09/16 03:11:45;;;;;;;1.65;0.77;;;18.70;64.60;;;;;;5051867;28;20068;-71
2022/09/16 03:14:31;;;;;;;1.05;0.55;;;18.70;64.40;;;;;;5050436;28;20061;-71
2022/09/16 03:17:02;;;;;;;0.73;0.60;;;18.70;64.50;;;;;;5051671;28;20490;-71
2022/09/16 03:19:31;;;;;;;1.08;0.57;;;18.60;64.50;;;;;;5052103;28;20071;-71
2022/09/16 03:22:01;;;;;;;1.73;0.70;;;18.60;64.50;;;;;;5050748;28;20055;-71
2022/09/16 03:24:31;;;;;;;0.60;0.60;;;18.70;64.60;;;;;;5050803;28;20059;-71
2022/09/16 03:27:01;;;;;;;1.15;0.60;;;18.70;64.60;;;;;;5051914;28;20466;-71
2022/09/16 03:29:30;;;;;;;0.85;0.60;;;18.70;64.50;;;;;;5052024;28;20071;-71
2022/09/16 03:31:59;;;;;;;1.77;0.60;;;18.00;66.70;;;;;;5051584;28;20055;-71
2022/09/16 03:34:27;;;;;;;0.50;0.50;;;18.70;64.50;;;;;;5052081;28;20053;-71
2022/09/16 03:36:56;;;;;;;1.08;0.70;;;18.60;64.50;;;;;;5050429;28;20059;-71
2022/09/16 03:39:23;;;;;;;1.08;0.65;;;18.60;67.50;;;;;;5051586;28;20045;-71
2022/09/16 03:41:50;;;;;;;0.80;0.60;;;18.70;64.50;;;;;;5050570;28;20060;-71
2022/09/16 03:44:18;;;;;;;1.75;0.80;;;18.60;64.40;;;;;;5051345;28;20554;-71
2022/09/16 03:46:45;;;;;;;1.48;0.60;;;18.80;67.10;;;;;;5051661;28;20131;-71
2022/09/16 03:49:11;;;;;;;1.60;0.93;;;18.60;64.40;;;;;;5052015;28;20629;-71
2022/09/16 03:51:38;;;;;;;1.05;0.65;;;18.60;64.40;;;;;;5050157;28;20071;-71
2022/09/16 03:54:05;;;;;;;1.27;0.70;;;18.60;64.40;;;;;;5051775;28;20417;-71
2022/09/16 03:56:32;;;;;;;2.10;0.60;;;18.60;64.40;;;;;;5050649;28;20057;-71
2022/09/16 03:58:59;;;;;;;0.75;0.65;;;18.60;64.40;;;;;;5051276;28;20057;-71
2022/09/16 04:01:27;;;;;;;2.33;0.80;;;18.60;66.80;;;;;;5049917;28;20053;-71
2022/09/16 04:03:54;;;;;;;0.70;0.68;;;18.60;64.40;;;;;;5050622;28;20370;-71
2022/09/16 04:06:20;;;;;;;0.75;0.60;;;18.60;64.40;;;;;;5051584;28;20136;-71
2022/09/16 04:08:49;;;;;;;1.83;0.60;;;18.60;64.40;;;;;;5051559;28;20044;-71
2022/09/16 04:11:16;;;;;;;2.08;0.75;;;17.50;65.90;;;;;;5051355;28;20051;-71
2022/09/16 04:13:43;;;;;;;1.08;0.55;;;18.60;64.40;;;;;;5054396;28;20060;-71
2022/09/16 04:16:10;;;;;;;0.93;0.60;;;18.60;64.30;;;;;;5055290;28;20052;-71
2022/09/16 04:18:38;;;;;;;1.10;0.63;;;18.60;64.30;;;;;;5055509;28;20049;-71
2022/09/16 04:21:05;;;;;;;0.98;0.47;;;20.00;68.10;;;;;;5055252;28;20055;-71
2022/09/16 04:23:31;;;;;;;0.60;0.60;;;18.60;64.30;;;;;;5070970;28;20092;-71
2022/09/16 04:25:58;;;;;;;1.60;0.57;;;19.40;65.90;;;;;;5054110;28;20491;-71
2022/09/16 04:28:26;;;;;;;1.67;0.70;;;18.60;64.30;;;;;;5053726;28;20049;-71
2022/09/16 04:30:52;;;;;;;1.02;0.52;;;18.70;67.40;;;;;;5053476;28;20053;-71
2022/09/16 04:33:19;;;;;;;0.75;0.68;;;18.60;64.30;;;;;;5054261;28;20056;-71
2022/09/16 04:35:47;;;;;;;1.80;0.68;;;18.70;64.80;;;;;;5053979;28;20073;-71
2022/09/16 04:38:14;;;;;;;0.68;0.60;;;18.60;64.20;;;;;;5055188;28;20049;-71
2022/09/16 04:40:41;;;;;;;1.63;0.65;;;18.60;64.20;;;;;;5054752;28;20055;-71
2022/09/16 04:43:08;;;;;;;0.70;0.57;;;18.60;64.20;;;;;;5054380;28;20051;-71
2022/09/16 04:45:35;;;;;;;1.25;0.70;;;18.60;64.20;;;;;;5055274;28;20056;-71
2022/09/16 04:48:02;;;;;;;0.77;0.60;;;19.30;67.70;;;;;;5053852;28;20063;-71
2022/09/16 04:50:28;;;;;;;1.02;0.60;;;18.60;64.20;;;;;;5054765;28;20049;-71
2022/09/16 04:52:56;;;;;;;0.75;0.50;;;19.70;68.00;;;;;;5053570;28;20057;-71
2022/09/16 04:55:23;;;;;;;0.85;0.45;;;17.80;65.70;;;;;;5054743;28;20071;-71
2022/09/16 04:57:51;;;;;;;0.98;0.60;;;18.60;64.20;;;;;;5053130;28;20059;-71
2022/09/16 05:00:18;;;;;;;1.58;0.70;;;18.60;64.20;;;;;;5054261;28;20514;-71
2022/09/16 05:02:45;;;;;;;0.75;0.60;;;18.70;67.40;;;;;;5053274;28;20052;-71
2022/09/16 05:05:12;;;;;;;1.10;0.73;;;18.60;64.20;;;;;;5053378;28;20060;-71
2022/09/16 05:07:38;;;;;;;0.93;0.63;;;18.60;64.20;;;;;;5053402;28;20044;-71
2022/09/16 05:10:07;;;;;;;1.23;0.63;;;18.60;64.20;;;;;;5053147;28;20504;-71
2022/09/16 05:12:34;;;;;;;2.25;0.63;;;18.60;64.20;;;;;;5054150;28;20044;-71
2022/09/16 05:15:01;;;;;;;0.90;0.70;;;18.60;64.20;;;;;;5054106;28;20493;-71
2022/09/16 05:17:29;;;;;;;0.93;0.60;;;18.40;66.70;;;;;;5053284;28;20052;-71
2022/09/16 05:19:56;;;;;;;0.95;0.70;;;19.40;66.90;;;;;;5054092;28;20055;-71
2022/09/16 05:22:22;;;;;;;0.45;0.40;;;18.60;64.10;;;;;;5053242;28;20055;-71
2022/09/16 05:24:49;;;;;;;1.85;0.75;;;18.60;64.10;;;;;;5053056;28;20053;-71
2022/09/16 05:27:17;;;;;;;2.45;0.90;;;18.60;64.10;;;;;;5052743;28;20060;-71
2022/09/16 05:29:44;;;;;;;1.55;0.95;;;17.70;66.00;;;;;;5053893;28;20437;-73
2022/09/16 05:32:11;;;;;;;1.23;0.70;;;18.50;64.10;;;;;;5052555;28;20061;-74
2022/09/16 05:34:37;;;;;;;1.77;0.88;;;18.50;64.10;;;;;;5054071;28;20053;-73
2022/09/16 05:37:04;;;;;;;0.75;0.43;;;18.50;64.10;;;;;;5052767;28;20135;-73
2022/09/16 05:39:31;;;;;;;1.50;0.68;;;18.60;64.00;;;;;;5053951;28;20052;-72
2022/09/16 05:41:58;;;;;;;1.92;0.80;;;18.50;64.10;;;;;;5053290;28;20045;-73
2022/09/16 05:44:29;;;;;;;0.68;0.50;;;18.50;64.00;;;;;;5050764;28;20059;-73
2022/09/16 05:46:56;;;;;;;1.45;0.65;;;18.50;64.00;;;;;;5052557;28;20063;-74
2022/09/16 05:49:24;;;;;;;2.15;0.90;;;18.50;64.00;;;;;;5053476;28;20493;-72
2022/09/16 05:51:51;;;;;;;0.63;0.60;;;18.50;67.00;;;;;;5034181;28;20122;-74
2022/09/16 05:54:18;;;;;;;0.82;0.57;;;18.50;64.00;;;;;;5052611;28;20059;-71
2022/09/16 05:56:45;;;;;;;1.85;0.80;;;18.40;66.50;;;;;;5053059;28;20045;-71
2022/09/16 05:59:12;;;;;;;0.47;0.47;;;18.50;64.00;;;;;;5048776;28;20053;-71
2022/09/16 06:01:40;;;;;;;2.10;0.90;;;18.50;64.00;;;;;;5052318;28;20063;-71
2022/09/16 06:04:08;;;;;;;0.60;0.57;;;18.50;63.90;;;;;;5053829;28;20071;-72
2022/09/16 06:06:35;;;;;;;0.77;0.70;;;18.50;63.90;;;;;;5069264;28;20116;-74
2022/09/16 06:09:05;;;;;;;1.48;0.70;;;18.50;63.90;;;;;;5053202;28;20055;-73
2022/09/16 06:11:33;;;;;;;1.30;0.70;;;18.50;63.90;;;;;;5053045;28;20139;-73
2022/09/16 06:14:01;;;;;;;1.58;0.57;;;18.50;63.90;;;;;;5053072;28;20132;-72
2022/09/16 06:16:31;;;;;;;1.30;0.65;;;18.50;63.90;;;;;;5052823;28;20053;-73
2022/09/16 06:18:59;;;;;;;1.48;0.70;;;18.50;63.90;;;;;;5049885;28;20110;-74
2022/09/16 06:21:26;;;;;;;0.98;0.65;;;18.50;63.90;;;;;;5050519;28;20052;-73
2022/09/16 06:23:53;;;;;;;1.27;0.65;;;18.50;63.90;;;;;;5051088;28;20496;-73
2022/09/16 06:26:21;;;;;;;1.30;0.70;;;18.50;66.30;;;;;;5052578;28;20071;-74
2022/09/16 06:28:48;;;;;;;1.98;0.90;;;18.30;67.00;;;;;;5051861;28;20048;-75
2022/09/16 06:31:16;;;;;;;2.10;0.70;;;18.50;63.80;;;;;;5051510;28;20405;-75
2022/09/16 06:33:43;;;;;;;2.15;0.80;;;18.50;63.90;;;;;;5051591;28;20072;-73
2022/09/16 06:36:12;;;;;;;2.08;0.82;;;18.50;63.80;;;;;;5051224;28;20055;-74
2022/09/16 06:38:39;;;;;;;1.65;0.68;;;18.50;63.80;;;;;;5051542;28;20048;-73
2022/09/16 06:41:06;;;;;;;2.20;0.95;;;18.50;63.80;;;;;;5051353;28;20049;-73
2022/09/16 06:43:33;;;;;;;3.45;1.00;;;18.50;63.80;;;;;;5051213;28;20049;-73
2022/09/16 06:46:01;;;;;;;1.40;0.80;;;18.10;65.40;;;;;;5051586;28;20057;-72
2022/09/16 06:48:28;;;;;;;1.35;0.88;;;18.60;63.90;;;;;;5051761;28;20056;-73
2022/09/16 06:50:59;;;;;;;0.90;0.70;;;18.80;66.50;;;;;;5051416;28;20063;-72
2022/09/16 06:53:27;;;;;;;1.33;0.70;;;18.60;63.90;;;;;;5051605;28;20057;-72
2022/09/16 06:55:53;;;;;;;1.52;0.73;;;18.60;65.50;;;;;;5050836;28;20087;-73
2022/09/16 06:58:20;;;;;;;0.82;0.80;;;18.50;63.90;;;;;;5051291;28;20484;-72
2022/09/16 07:00:47;;;;;;;2.80;0.80;;;18.50;63.90;;;;;;5050883;28;20139;-74
2022/09/16 07:03:14;;;;;;;1.02;0.70;;;18.50;63.90;;;;;;5050885;28;20136;-74
2022/09/16 07:05:40;;;;;;;1.25;0.70;;;18.50;63.90;;;;;;5051359;28;20052;-74
2022/09/16 07:08:07;;;;;;;0.77;0.70;;;18.10;67.20;;;;;;5051142;28;20045;-71
2022/09/16 07:10:35;;;;;;;3.58;0.85;;;18.50;63.90;;;;;;5050805;28;20075;-72
2022/09/16 07:13:02;;;;;;;0.95;0.70;;;18.50;63.90;;;;;;5050840;28;20049;-72
2022/09/16 07:15:29;;;;;;;1.25;0.80;;;18.50;66.50;;;;;;5050933;28;20065;-71
2022/09/16 07:17:56;;;;;;;3.88;0.80;;;18.50;63.90;;;;;;5050832;28;20053;-71
2022/09/16 07:20:23;;;;;;;2.70;0.70;;;18.50;63.80;;;;;;5050936;28;20049;-73
2022/09/16 07:22:52;;;;;;;1.23;0.70;;;18.50;66.70;;;;;;5051053;28;20486;-73
2022/09/16 07:25:19;;;;;;;1.73;0.90;;;18.60;65.90;;;;;;5039477;28;20080;-72
2022/09/16 07:27:47;;;;;;;1.58;1.10;;;18.60;63.90;;;;;;5050426;28;20656;-74
2022/09/16 07:30:14;;;;;;;2.25;0.93;;;18.60;64.00;;;;;;5052031;28;20049;-70
2022/09/16 07:32:40;;;;;;;5.97;1.50;;;18.60;64.00;;;;;;5050998;28;20063;-72
2022/09/16 07:35:08;;;;;;;11.40;1.70;;;18.60;64.20;;;;;;5051969;28;20071;-72
2022/09/16 07:37:35;;;;;;;20.35;2.33;;;18.60;64.10;;;;;;5050822;28;20053;-73
2022/09/16 07:40:02;;;;;;;13.43;1.70;;;18.70;64.20;;;;;;5050015;28;20052;-71
2022/09/16 07:42:29;;;;;;;8.63;1.77;;;18.90;66.90;;;;;;5051601;28;20045;-73
2022/09/16 07:44:57;;;;;;;9.00;2.00;;;18.80;64.00;;;;;;5051581;28;20409;-72
2022/09/16 07:47:24;;;;;;;5.00;1.98;;;18.90;63.90;;;;;;5049640;28;20057;-72
2022/09/16 07:49:54;;;;;;;10.43;1.83;;;18.80;63.90;;;;;;5051723;28;20502;-72
2022/09/16 07:52:22;;;;;;;12.15;2.10;;;18.80;63.90;;;;;;5051337;28;20532;-73
2022/09/16 07:54:49;;;;;;;9.40;1.83;;;18.80;63.90;;;;;;5051117;28;20045;-71
2022/09/16 07:57:16;;;;;;;4.38;2.15;;;18.80;63.90;;;;;;5050398;28;20417;-73
2022/09/16 07:59:42;;;;;;;4.50;1.50;;;19.10;67.10;;;;;;5050436;28;20075;-72
2022/09/16 08:02:10;;;;;;;4.13;1.60;;;18.90;63.90;;;;;;5049520;28;20083;-74
2022/09/16 08:04:37;;;;;;;15.23;2.33;;;18.30;66.20;;;;;;5051702;28;20127;-72
2022/09/16 08:07:04;;;;;;;3.90;1.85;;;18.90;64.00;;;;;;5050220;28;20120;-72
2022/09/16 08:09:31;;;;;;;6.13;1.48;;;18.90;64.00;;;;;;5066893;28;20063;-71
2022/09/16 08:11:58;;;;;;;3.90;1.50;;;18.90;64.00;;;;;;5051339;28;20071;-72
2022/09/16 08:14:25;;;;;;;6.13;1.65;;;19.00;66.80;;;;;;5050468;28;20068;-72
2022/09/16 08:16:51;;;;;;;4.93;1.40;;;18.90;64.10;;;;;;5051482;28;20463;-72
2022/09/16 08:19:21;;;;;;;7.38;1.60;;;18.90;64.10;;;;;;5051380;28;20052;-72
2022/09/16 08:21:48;;;;;;;4.35;1.20;;;18.90;64.10;;;;;;5049974;28;20425;-72
2022/09/16 08:24:15;;;;;;;3.03;1.35;;;18.90;64.10;;;;;;5051171;28;20047;-74
2022/09/16 08:26:42;;;;;;;5.57;1.35;;;18.90;64.00;;;;;;5050213;28;20057;-72
2022/09/16 08:29:08;;;;;;;3.67;1.45;;;18.80;67.20;;;;;;5050370;28;20406;-74
2022/09/16 08:31:35;;;;;;;4.82;1.50;;;18.80;64.10;;;;;;5049825;28;20053;-74
2022/09/16 08:34:02;;;;;;;4.10;1.40;;;18.80;64.00;;;;;;5050242;28;20052;-72
2022/09/16 08:36:32;;;;;;;2.72;1.25;;;18.80;64.00;;;;;;5050352;28;20416;-72
2022/09/16 08:38:58;;;;;;;6.03;1.30;;;18.80;64.50;;;;;;5051538;28;20417;-74
2022/09/16 08:41:33;;;;;;;5.30;1.27;;;18.80;64.00;;;;;;5049738;28;20052;-74
2022/09/16 08:44:05;;;;;;;5.18;1.40;;;18.70;63.50;;;;;;5050295;28;20061;-74
2022/09/16 08:46:34;;;;;;;5.28;1.55;;;18.80;64.00;;;;;;5050218;28;20103;-72
2022/09/16 08:49:07;;;;;;;5.80;1.40;;;18.80;64.00;;;;;;5051208;28;20086;-72
2022/09/16 08:51:35;;;;;;;3.25;1.30;;;18.80;64.00;;;;;;5049704;28;20075;-74
2022/09/16 08:54:03;;;;;;;6.18;1.42;;;18.70;63.90;;;;;;5049754;28;20063;-74
2022/09/16 08:56:30;;;;;;;3.75;1.20;;;18.70;63.90;;;;;;5049780;28;20057;-74
2022/09/16 08:58:59;;;;;;;5.05;1.60;;;18.70;64.00;;;;;;5051449;28;20045;-74
2022/09/16 09:01:29;;;;;;;3.67;1.25;;;18.70;63.90;;;;;;5053360;28;20394;-75
2022/09/16 09:03:56;;;;;;;2.53;1.10;;;19.70;67.20;;;;;;5054744;28;20056;-72
2022/09/16 09:06:33;;;;;;;3.67;1.48;;;18.70;63.90;;;;;;5053913;28;20049;-73
2022/09/16 09:09:05;;;;;;;1.58;1.25;;;18.70;63.90;;;;;;5054884;28;20120;-71
2022/09/16 09:11:35;;;;;;;3.70;1.40;;;18.70;64.00;;;;;;5053291;28;20057;-71
2022/09/16 09:14:10;;;;;;;2.75;1.15;;;18.70;64.00;;;;;;5053421;28;20053;-74
2022/09/16 09:16:37;;;;;;;;;;;18.70;64.00;;;;;;5054309;28;20053;-74
2022/09/16 09:19:21;;;;;;;2.92;1.10;;;18.60;63.90;;;;;;5054605;28;19920;-72
2022/09/16 09:21:51;;;;;;;2.22;1.13;;;18.60;64.00;;;;;;5052924;28;20477;-71
2022/09/16 09:24:35;;;;;;;4.35;1.38;;;18.60;64.00;;;;;;5053237;28;20053;-74
2022/09/16 09:27:04;;;;;;;2.90;1.25;;;18.60;63.90;;;;;;5053740;28;20057;-74
2022/09/16 09:29:52;;;;;;;5.68;1.40;;;18.60;66.80;;;;;;5052712;28;20128;-74
2022/09/16 09:32:24;;;;;;;4.30;1.15;;;18.60;63.80;;;;;;5049161;28;20139;-73
2022/09/16 09:35:03;;;;;;;3.28;1.13;;;18.70;67.10;;;;;;5051808;28;20063;-73
2022/09/16 09:37:51;;;;;;;4.72;1.20;;;18.70;63.90;;;;;;5053546;28;20063;-74
2022/09/16 09:40:21;;;;;;;3.22;1.20;;;18.70;63.90;;;;;;5033699;28;20064;-72
2022/09/16 09:42:50;;;;;;;4.38;1.33;;;18.60;66.50;;;;;;5044741;28;20049;-75
2022/09/16 09:45:21;;;;;;;4.07;1.40;;;18.70;63.80;;;;;;5052799;28;20056;-75
2022/09/16 09:47:49;;;;;;;2.50;1.00;;;18.70;63.70;;;;;;5053178;28;20118;-75
2022/09/16 09:50:19;;;;;;;6.55;1.23;;;18.70;63.70;;;;;;5052186;28;20051;-74
2022/09/16 09:52:49;;;;;;;4.50;1.50;;;18.90;67.20;;;;;;5052600;28;20136;-71
2022/09/16 09:55:17;;;;;;;5.20;1.38;;;18.70;63.70;;;;;;5051414;28;20061;-72
2022/09/16 09:57:57;;;;;;;5.38;1.30;;;18.70;63.70;;;;;;5050997;28;20045;-74
2022/09/16 10:00:24;;;;;;;3.10;1.20;;;18.70;63.60;;;;;;5050629;28;20045;-75
2022/09/16 10:02:51;;;;;;;3.65;1.40;;;18.70;63.70;;;;;;5052972;28;20045;-73
2022/09/16 10:05:21;;;;;;;4.57;1.52;;;18.60;66.50;;;;;;5052842;28;20132;-72
2022/09/16 10:07:47;;;;;;;5.10;1.40;;;18.70;63.60;;;;;;5050593;28;20056;-72
2022/09/16 10:10:15;;;;;;;3.90;1.10;;;18.70;66.70;;;;;;5050630;28;20196;-72
2022/09/16 10:12:42;;;;;;;3.78;1.30;;;19.50;66.40;;;;;;5051690;28;20053;-71
2022/09/16 10:15:21;;;;;;;3.95;1.17;;;18.70;63.50;;;;;;5051429;28;20391;-71
2022/09/16 10:17:48;;;;;;;3.50;1.27;;;18.70;63.40;;;;;;5051631;28;20485;-70
2022/09/16 10:20:23;;;;;;;3.53;1.10;;;18.70;63.50;;;;;;5051192;28;20114;-73
2022/09/16 10:22:55;;;;;;;5.40;1.23;;;18.70;63.50;;;;;;5052494;28;20063;-75
2022/09/16 10:25:23;;;;;;;2.58;0.95;;;18.70;63.50;;;;;;5051668;28;20072;-72
2022/09/16 10:27:55;;;;;;;4.43;1.30;;;18.70;63.50;;;;;;5050644;28;20057;-74
2022/09/16 10:30:23;;;;;;;2.83;1.00;;;18.70;63.50;;;;;;5050452;28;20052;-75
2022/09/16 10:32:51;;;;;;;2.30;1.00;;;18.70;63.40;;;;;;5051605;28;20092;-74
2022/09/16 10:35:21;;;;;;;3.58;1.10;;;18.80;66.50;;;;;;5051119;28;20055;-73
2022/09/16 10:37:55;;;;;;;3.60;1.30;;;18.70;63.40;;;;;;5052095;28;20044;-73
2022/09/16 10:40:23;;;;;;;3.25;1.08;;;18.70;63.20;;;;;;5048167;28;20045;-72
2022/09/16 10:42:50;;;;;;;4.32;1.48;;;18.70;63.20;;;;;;5051033;28;20063;-73
2022/09/16 10:45:23;;;;;;;3.05;1.23;;;18.80;63.10;;;;;;5036736;28;20080;-71
2022/09/16 10:47:51;;;;;;;2.40;1.00;;;18.80;63.10;;;;;;5050808;28;20053;-72
2022/09/16 10:50:19;;;;;;;4.28;1.10;;;18.80;63.10;;;;;;5050500;28;20055;-72
2022/09/16 10:52:46;;;;;;;4.93;1.33;;;18.90;66.60;;;;;;5050894;28;20136;-72
2022/09/16 10:55:25;;;;;;;3.45;1.20;;;18.80;62.80;;;;;;5051781;28;20061;-72
2022/09/16 10:57:52;;;;;;;3.78;1.45;;;18.80;62.60;;;;;;5050802;28;20057;-72
2022/09/16 11:00:20;;;;;;;2.35;1.10;;;18.90;62.70;;;;;;5050935;28;20482;-73
2022/09/16 11:03:16;;;;;;;3.22;1.25;;;18.90;62.80;;;;;;5051181;28;20136;-72
2022/09/16 11:05:48;;;;;;;4.35;1.20;;;18.90;62.80;;;;;;5050584;28;20490;-71
2022/09/16 11:08:17;;;;;;;2.08;0.98;;;18.90;62.90;;;;;;5050846;28;20457;-74
2022/09/16 11:10:47;;;;;;;6.93;1.20;;;18.90;62.90;;;;;;5051827;28;20053;-74
2022/09/16 11:13:21;;;;;;;2.30;1.00;;;18.90;65.70;;;;;;5050887;28;20498;-74
2022/09/16 11:15:55;;;;;;;2.65;1.13;;;19.00;62.90;;;;;;5051187;28;20052;-70
2022/09/16 11:18:33;;;;;;;7.47;1.33;;;19.00;62.60;;;;;;5050380;28;20053;-75
2022/09/16 11:21:13;;;;;;;2.47;1.00;;;17.70;65.70;;;;;;5048941;28;20049;-75
2022/09/16 11:23:55;;;;;;;3.53;1.10;;;18.40;65.50;;;;;;5050996;28;20048;-72
2022/09/16 11:26:24;;;;;;;1.75;0.95;;;19.00;63.00;;;;;;5051017;28;20135;-72
2022/09/16 11:29:12;;;;;;;3.63;1.10;;;19.10;63.00;;;;;;5049801;28;20053;-74
2022/09/16 11:31:43;;;;;;;4.65;1.75;;;19.10;63.00;;;;;;5047027;28;20607;-75
2022/09/16 11:34:17;;;;;;;4.13;1.23;;;19.10;66.50;;;;;;5050153;28;20055;-75
2022/09/16 11:36:50;;;;;;;3.75;1.00;;;19.10;63.00;;;;;;5049940;28;20059;-75
2022/09/16 11:39:34;;;;;;;3.40;1.20;;;19.10;62.90;;;;;;5048417;28;20405;-74
2022/09/16 11:42:04;;;;;;;3.33;1.25;;;19.20;63.00;;;;;;5047869;28;20049;-75
2022/09/16 11:44:38;;;;;;;3.22;1.30;;;19.20;62.90;;;;;;5049794;28;20057;-75
2022/09/16 11:47:24;;;;;;;6.25;1.48;;;19.20;62.90;;;;;;5050475;28;20063;-75
2022/09/16 11:50:16;;;;;;;3.35;1.33;;;19.30;65.40;;;;;;5049678;28;20052;-76
2022/09/16 11:52:52;;;;;;;4.15;1.20;;;19.30;64.80;;;;;;5043196;28;20139;-75
2022/09/16 11:55:29;;;;;;;3.65;1.25;;;19.20;62.80;;;;;;5050315;28;20087;-75
2022/09/16 11:57:58;;;;;;;2.05;0.98;;;19.20;62.80;;;;;;5049736;28;20055;-73
2022/09/16 12:00:25;;;;;;;2.33;1.00;;;19.20;62.80;;;;;;5049086;28;20055;-73
2022/09/16 12:02:55;;;;;;;2.35;1.20;;;19.20;62.80;;;;;;5050013;28;20049;-74
2022/09/16 12:05:25;;;;;;;3.25;0.95;;;19.20;62.80;;;;;;5050088;28;20501;-75
2022/09/16 12:07:55;;;;;;;3.03;1.30;;;19.20;62.80;;;;;;5049895;28;20152;-72
2022/09/16 12:10:23;;;;;;;2.17;0.90;;;19.20;62.80;;;;;;5051068;28;20057;-73
2022/09/16 12:12:52;;;;;;;2.00;1.10;;;19.20;62.80;;;;;;5050017;28;20063;-73
2022/09/16 12:15:20;;;;;;;2.58;1.10;;;19.20;62.80;;;;;;5051760;28;20045;-73
2022/09/16 12:17:52;;;;;;;3.88;1.20;;;19.30;62.80;;;;;;5051383;28;20059;-72
2022/09/16 12:20:20;;;;;;;2.70;1.10;;;19.30;62.80;;;;;;5051140;28;20506;-73
2022/09/16 12:22:50;;;;;;;2.97;1.00;;;19.30;62.80;;;;;;5051363;28;20060;-75
2022/09/16 12:25:19;;;;;;;4.60;1.20;;;19.30;62.80;;;;;;5050174;28;20428;-73
2022/09/16 12:27:48;;;;;;;2.67;1.20;;;19.00;65.60;;;;;;5050892;28;20041;-72
2022/09/16 12:30:17;;;;;;;4.13;1.58;;;19.30;62.80;;;;;;5048936;28;20045;-72
2022/09/16 12:32:49;;;;;;;3.55;1.42;;;19.30;62.80;;;;;;5050355;28;20037;-73
2022/09/16 12:35:17;;;;;;;7.68;1.75;;;19.30;62.70;;;;;;5052687;28;20397;-73
2022/09/16 12:37:47;;;;;;;3.35;1.10;;;19.30;65.40;;;;;;5051229;28;20056;-71
2022/09/16 12:40:18;;;;;;;3.33;1.42;;;19.40;62.80;;;;;;5051318;28;20041;-71
2022/09/16 12:43:21;;;;;;;1.77;1.00;;;19.50;65.60;;;;;;5051906;28;20053;-71
2022/09/16 12:46:00;;;;;;;2.65;1.00;;;19.40;62.70;;;;;;5051452;28;20700;-73
2022/09/16 12:48:48;;;;;;;3.75;1.10;;;19.30;62.70;;;;;;5052187;28;20425;-73
2022/09/16 12:51:38;;;;;;;2.67;1.20;;;19.30;62.60;;;;;;5049531;28;20051;-71
2022/09/16 12:54:19;;;;;;;5.57;1.38;;;19.30;62.60;;;;;;5053532;28;20508;-72
2022/09/16 12:56:57;;;;;;;3.05;1.10;;;19.30;62.70;;;;;;5054867;28;20118;-72
2022/09/16 12:59:35;;;;;;;3.70;1.10;;;19.30;62.60;;;;;;5054078;28;20045;-73
2022/09/16 13:02:04;;;;;;;4.82;1.20;;;19.30;62.60;;;;;;5054401;28;20045;-72